Time;durP1;ratioP1;P1;durP2;ratioP2;P2;SDS_P1;SDS_P2;PMS_P1;PMS_P2;Temp;Humidity;BMP_temperature;BMP_pressure;BME280_temperature;BME280_humidity;BME280_pressure;Samples;Min_cycle;Max_cycle;Signal;HPM_P1;HPM_P2
2020/03/06 00:00:37;;;;;;;4.3;2.95;;;;;;;5.74;85.71973;92877.45;;;;
2020/03/06 00:01:56;;;;;;;4.3;2.95;;;;;;;5.74;85.71973;92877.45;;;;
2020/03/06 00:02:56;;;;;;;4.3;2.95;;;;;;;5.74;85.71973;92877.45;;;;
2020/03/06 00:03:57;;;;;;;2.9;2.7;;;;;;;5.73;85.71777;92887.91;;;;
2020/03/06 00:05:02;;;;;;;2.9;2.7;;;;;;;5.73;85.71777;92887.91;;;;
2020/03/06 00:06:03;;;;;;;2.9;2.7;;;;;;;5.73;85.71777;92887.91;;;;
2020/03/06 00:07:05;;;;;;;2.9;2.7;;;;;;;5.73;85.71777;92887.91;;;;
2020/03/06 00:08:06;;;;;;;2.9;2.7;;;;;;;5.73;85.71777;92887.91;;;;
2020/03/06 00:09:06;;;;;;;2.9;2.7;;;;;;;5.73;85.71777;92887.91;;;;
2020/03/06 00:10:15;;;;;;;2.9;2.7;;;;;;;5.73;85.71777;92887.91;;;;
2020/03/06 00:11:16;;;;;;;2.9;2.7;;;;;;;5.73;85.71777;92887.91;;;;
2020/03/06 00:12:17;;;;;;;2.9;2.7;;;;;;;5.73;85.71777;92887.91;;;;
2020/03/06 00:13:18;;;;;;;2.9;2.7;;;;;;;5.73;85.71777;92887.91;;;;
2020/03/06 00:14:19;;;;;;;3.3;2.7;;;;;;;5.7;85.66797;92884.96;;;;
2020/03/06 00:15:19;;;;;;;3.3;2.7;;;;;;;5.7;85.66797;92884.96;;;;
2020/03/06 00:16:20;;;;;;;3.3;2.7;;;;;;;5.7;85.66797;92884.96;;;;
2020/03/06 00:17:20;;;;;;;3.3;2.7;;;;;;;5.7;85.66797;92884.96;;;;
2020/03/06 00:18:21;;;;;;;3.3;2.7;;;;;;;5.7;85.66797;92884.96;;;;
2020/03/06 00:19:21;;;;;;;3.3;2.7;;;;;;;5.7;85.66797;92884.96;;;;
2020/03/06 00:20:22;;;;;;;3.3;2.7;;;;;;;5.7;85.66797;92884.96;;;;
2020/03/06 00:21:22;;;;;;;3.3;2.7;;;;;;;5.7;85.66797;92884.96;;;;
2020/03/06 00:22:23;;;;;;;3.3;2.7;;;;;;;5.7;85.66797;92884.96;;;;
2020/03/06 00:23:24;;;;;;;3.3;2.7;;;;;;;5.7;85.66797;92884.96;;;;
2020/03/06 00:24:25;;;;;;;3.3;2.7;;;;;;;5.7;85.66797;92884.96;;;;
2020/03/06 00:25:25;;;;;;;2.8;2.6;;;;;;;5.74;85.58105;92873.6;;;;
2020/03/06 00:26:26;;;;;;;2.8;2.6;;;;;;;5.74;85.58105;92873.6;;;;
2020/03/06 00:27:27;;;;;;;2.8;2.6;;;;;;;5.74;85.58105;92873.6;;;;
2020/03/06 00:28:27;;;;;;;2.8;2.6;;;;;;;5.74;85.58105;92873.6;;;;
2020/03/06 00:29:29;;;;;;;2.8;2.6;;;;;;;5.74;85.58105;92873.6;;;;
2020/03/06 00:30:29;;;;;;;2.8;2.6;;;;;;;5.74;85.58105;92873.6;;;;
2020/03/06 00:31:30;;;;;;;2.8;2.6;;;;;;;5.74;85.58105;92873.6;;;;
2020/03/06 00:32:30;;;;;;;2.8;2.6;;;;;;;5.74;85.58105;92873.6;;;;
2020/03/06 00:33:31;;;;;;;2.8;2.6;;;;;;;5.74;85.58105;92873.6;;;;
2020/03/06 00:34:32;;;;;;;2.8;2.6;;;;;;;5.74;85.58105;92873.6;;;;
2020/03/06 00:35:32;;;;;;;2.8;2.3;;;;;;;5.69;85.91895;92876.23;;;;
2020/03/06 00:36:33;;;;;;;2.8;2.3;;;;;;;5.69;85.91895;92876.23;;;;
2020/03/06 00:37:33;;;;;;;2.8;2.3;;;;;;;5.69;85.91895;92876.23;;;;
2020/03/06 00:38:35;;;;;;;2.8;2.3;;;;;;;5.69;85.91895;92876.23;;;;
2020/03/06 00:39:35;;;;;;;2.8;2.3;;;;;;;5.69;85.91895;92876.23;;;;
2020/03/06 00:40:36;;;;;;;2.8;2.3;;;;;;;5.69;85.91895;92876.23;;;;
2020/03/06 00:41:36;;;;;;;2.8;2.3;;;;;;;5.69;85.91895;92876.23;;;;
2020/03/06 00:42:37;;;;;;;2.8;2.3;;;;;;;5.69;85.91895;92876.23;;;;
2020/03/06 00:43:37;;;;;;;2.8;2.3;;;;;;;5.69;85.91895;92876.23;;;;
2020/03/06 00:44:38;;;;;;;2.8;2.3;;;;;;;5.69;85.91895;92876.23;;;;
2020/03/06 00:45:39;;;;;;;2.8;2.3;;;;;;;5.69;85.91895;92876.23;;;;
2020/03/06 00:46:39;;;;;;;2.45;2.25;;;;;;;5.67;85.73633;92868.48;;;;
2020/03/06 00:47:41;;;;;;;2.45;2.25;;;;;;;5.67;85.73633;92868.48;;;;
2020/03/06 00:48:42;;;;;;;2.45;2.25;;;;;;;5.67;85.73633;92868.48;;;;
2020/03/06 00:49:43;;;;;;;2.45;2.25;;;;;;;5.67;85.73633;92868.48;;;;
2020/03/06 00:50:44;;;;;;;2.45;2.25;;;;;;;5.67;85.73633;92868.48;;;;
2020/03/06 00:51:45;;;;;;;2.45;2.25;;;;;;;5.67;85.73633;92868.48;;;;
2020/03/06 00:52:46;;;;;;;2.45;2.25;;;;;;;5.67;85.73633;92868.48;;;;
2020/03/06 00:53:47;;;;;;;2.45;2.25;;;;;;;5.67;85.73633;92868.48;;;;
2020/03/06 00:54:48;;;;;;;2.45;2.25;;;;;;;5.67;85.73633;92868.48;;;;
2020/03/06 00:55:48;;;;;;;2.45;2.25;;;;;;;5.67;85.73633;92868.48;;;;
2020/03/06 00:56:49;;;;;;;2.05;1.85;;;;;;;5.55;85.7334;92863.5;;;;
2020/03/06 00:57:50;;;;;;;2.05;1.85;;;;;;;5.55;85.7334;92863.5;;;;
2020/03/06 00:58:51;;;;;;;2.05;1.85;;;;;;;5.55;85.7334;92863.5;;;;
2020/03/06 00:59:52;;;;;;;2.05;1.85;;;;;;;5.55;85.7334;92863.5;;;;
2020/03/06 01:00:53;;;;;;;2.05;1.85;;;;;;;5.55;85.7334;92863.5;;;;
2020/03/06 01:01:53;;;;;;;2.05;1.85;;;;;;;5.55;85.7334;92863.5;;;;
2020/03/06 01:02:54;;;;;;;2.05;1.85;;;;;;;5.55;85.7334;92863.5;;;;
2020/03/06 01:03:56;;;;;;;2.05;1.85;;;;;;;5.55;85.7334;92863.5;;;;
2020/03/06 01:04:58;;;;;;;2.05;1.85;;;;;;;5.55;85.7334;92863.5;;;;
2020/03/06 01:05:58;;;;;;;2.05;1.85;;;;;;;5.55;85.7334;92863.5;;;;
2020/03/06 01:06:59;;;;;;;2.05;1.85;;;;;;;5.55;85.7334;92863.5;;;;
2020/03/06 01:08:00;;;;;;;1.9;1.7;;;;;;;5.46;85.37891;92850.37;;;;
2020/03/06 01:09:00;;;;;;;1.9;1.7;;;;;;;5.46;85.37891;92850.37;;;;
2020/03/06 01:10:01;;;;;;;1.9;1.7;;;;;;;5.46;85.37891;92850.37;;;;
2020/03/06 01:11:04;;;;;;;1.9;1.7;;;;;;;5.46;85.37891;92850.37;;;;
2020/03/06 01:12:05;;;;;;;1.9;1.7;;;;;;;5.46;85.37891;92850.37;;;;
2020/03/06 01:13:09;;;;;;;1.9;1.7;;;;;;;5.46;85.37891;92850.37;;;;
2020/03/06 01:14:10;;;;;;;1.9;1.7;;;;;;;5.46;85.37891;92850.37;;;;
2020/03/06 01:15:10;;;;;;;1.9;1.7;;;;;;;5.46;85.37891;92850.37;;;;
2020/03/06 01:16:11;;;;;;;1.9;1.7;;;;;;;5.46;85.37891;92850.37;;;;
2020/03/06 01:17:11;;;;;;;1.9;1.7;;;;;;;5.46;85.37891;92850.37;;;;
2020/03/06 01:18:13;;;;;;;2.299999;2.1;;;;;;;5.19;85.21973;92846.55;;;;
2020/03/06 01:19:14;;;;;;;2.299999;2.1;;;;;;;5.19;85.21973;92846.55;;;;
2020/03/06 01:20:15;;;;;;;2.299999;2.1;;;;;;;5.19;85.21973;92846.55;;;;
2020/03/06 01:21:16;;;;;;;2.299999;2.1;;;;;;;5.19;85.21973;92846.55;;;;
2020/03/06 01:22:16;;;;;;;2.299999;2.1;;;;;;;5.19;85.21973;92846.55;;;;
2020/03/06 01:23:17;;;;;;;2.299999;2.1;;;;;;;5.19;85.21973;92846.55;;;;
2020/03/06 01:24:17;;;;;;;2.299999;2.1;;;;;;;5.19;85.21973;92846.55;;;;
2020/03/06 01:25:18;;;;;;;2.299999;2.1;;;;;;;5.19;85.21973;92846.55;;;;
2020/03/06 01:26:18;;;;;;;2.299999;2.1;;;;;;;5.19;85.21973;92846.55;;;;
2020/03/06 01:27:19;;;;;;;2.299999;2.1;;;;;;;5.19;85.21973;92846.55;;;;
2020/03/06 01:28:19;;;;;;;2.299999;2.1;;;;;;;5.19;85.21973;92846.55;;;;
2020/03/06 01:29:20;;;;;;;1.9;1.8;;;;;;;5.05;85.42383;92846.37;;;;
2020/03/06 01:30:21;;;;;;;1.9;1.8;;;;;;;5.05;85.42383;92846.37;;;;
2020/03/06 01:31:21;;;;;;;1.9;1.8;;;;;;;5.05;85.42383;92846.37;;;;
2020/03/06 01:32:23;;;;;;;1.9;1.8;;;;;;;5.05;85.42383;92846.37;;;;
2020/03/06 01:33:24;;;;;;;1.9;1.8;;;;;;;5.05;85.42383;92846.37;;;;
2020/03/06 01:34:27;;;;;;;1.9;1.8;;;;;;;5.05;85.42383;92846.37;;;;
2020/03/06 01:35:28;;;;;;;1.9;1.8;;;;;;;5.05;85.42383;92846.37;;;;
2020/03/06 01:36:28;;;;;;;1.9;1.8;;;;;;;5.05;85.42383;92846.37;;;;
2020/03/06 01:37:29;;;;;;;1.9;1.8;;;;;;;5.05;85.42383;92846.37;;;;
2020/03/06 01:38:29;;;;;;;1.9;1.8;;;;;;;5.05;85.42383;92846.37;;;;
2020/03/06 01:39:30;;;;;;;2.5;2.3;;;;;;;4.98;85.49512;92859.17;;;;
2020/03/06 01:40:31;;;;;;;2.5;2.3;;;;;;;4.98;85.49512;92859.17;;;;
2020/03/06 01:41:32;;;;;;;2.5;2.3;;;;;;;4.98;85.49512;92859.17;;;;
2020/03/06 01:42:34;;;;;;;2.5;2.3;;;;;;;4.98;85.49512;92859.17;;;;
2020/03/06 01:43:36;;;;;;;2.5;2.3;;;;;;;4.98;85.49512;92859.17;;;;
2020/03/06 01:44:36;;;;;;;2.5;2.3;;;;;;;4.98;85.49512;92859.17;;;;
2020/03/06 01:45:37;;;;;;;2.5;2.3;;;;;;;4.98;85.49512;92859.17;;;;
2020/03/06 01:46:37;;;;;;;2.5;2.3;;;;;;;4.98;85.49512;92859.17;;;;
2020/03/06 01:47:38;;;;;;;2.5;2.3;;;;;;;4.98;85.49512;92859.17;;;;
2020/03/06 01:48:38;;;;;;;2.5;2.3;;;;;;;4.98;85.49512;92859.17;;;;
2020/03/06 01:49:39;;;;;;;2.5;2.3;;;;;;;4.98;85.49512;92859.17;;;;
2020/03/06 01:50:39;;;;;;;1.9;1.8;;;;;;;5.05;85.43652;92869.9;;;;
2020/03/06 01:51:40;;;;;;;1.9;1.8;;;;;;;5.05;85.43652;92869.9;;;;
2020/03/06 01:52:40;;;;;;;1.9;1.8;;;;;;;5.05;85.43652;92869.9;;;;
2020/03/06 01:53:41;;;;;;;1.9;1.8;;;;;;;5.05;85.43652;92869.9;;;;
2020/03/06 01:54:41;;;;;;;1.9;1.8;;;;;;;5.05;85.43652;92869.9;;;;
2020/03/06 01:55:42;;;;;;;1.9;1.8;;;;;;;5.05;85.43652;92869.9;;;;
2020/03/06 01:56:43;;;;;;;1.9;1.8;;;;;;;5.05;85.43652;92869.9;;;;
2020/03/06 01:57:43;;;;;;;1.9;1.8;;;;;;;5.05;85.43652;92869.9;;;;
2020/03/06 01:58:44;;;;;;;1.9;1.8;;;;;;;5.05;85.43652;92869.9;;;;
2020/03/06 01:59:44;;;;;;;1.9;1.8;;;;;;;5.05;85.43652;92869.9;;;;
2020/03/06 02:00:45;;;;;;;2.4;1.7;;;;;;;4.96;85.65918;92871.06;;;;
2020/03/06 02:01:46;;;;;;;2.4;1.7;;;;;;;4.96;85.65918;92871.06;;;;
2020/03/06 02:02:48;;;;;;;2.4;1.7;;;;;;;4.96;85.65918;92871.06;;;;
2020/03/06 02:03:48;;;;;;;2.4;1.7;;;;;;;4.96;85.65918;92871.06;;;;
2020/03/06 02:04:49;;;;;;;2.4;1.7;;;;;;;4.96;85.65918;92871.06;;;;
2020/03/06 02:05:49;;;;;;;2.4;1.7;;;;;;;4.96;85.65918;92871.06;;;;
2020/03/06 02:06:50;;;;;;;2.4;1.7;;;;;;;4.96;85.65918;92871.06;;;;
2020/03/06 02:07:54;;;;;;;2.4;1.7;;;;;;;4.96;85.65918;92871.06;;;;
2020/03/06 02:08:55;;;;;;;2.4;1.7;;;;;;;4.96;85.65918;92871.06;;;;
2020/03/06 02:09:55;;;;;;;2.4;1.7;;;;;;;4.96;85.65918;92871.06;;;;
2020/03/06 02:10:56;;;;;;;1.6;1.5;;;;;;;5.05;85.81543;92887.3;;;;
2020/03/06 02:11:56;;;;;;;1.6;1.5;;;;;;;5.05;85.81543;92887.3;;;;
2020/03/06 02:12:59;;;;;;;1.6;1.5;;;;;;;5.05;85.81543;92887.3;;;;
2020/03/06 02:13:59;;;;;;;1.6;1.5;;;;;;;5.05;85.81543;92887.3;;;;
2020/03/06 02:15:00;;;;;;;1.6;1.5;;;;;;;5.05;85.81543;92887.3;;;;
2020/03/06 02:16:00;;;;;;;1.6;1.5;;;;;;;5.05;85.81543;92887.3;;;;
2020/03/06 02:17:01;;;;;;;1.6;1.5;;;;;;;5.05;85.81543;92887.3;;;;
2020/03/06 02:18:02;;;;;;;1.6;1.5;;;;;;;5.05;85.81543;92887.3;;;;
2020/03/06 02:19:03;;;;;;;1.6;1.5;;;;;;;5.05;85.81543;92887.3;;;;
2020/03/06 02:20:04;;;;;;;1.6;1.5;;;;;;;5.05;85.81543;92887.3;;;;
2020/03/06 02:21:04;;;;;;;1.6;1.5;;;;;;;5.05;85.81543;92887.3;;;;
2020/03/06 02:22:16;;;;;;;1.2;1.15;;;;;;;5.1;86.2334;92908.81;;;;
2020/03/06 02:23:17;;;;;;;1.2;1.15;;;;;;;5.1;86.2334;92908.81;;;;
2020/03/06 02:24:18;;;;;;;1.2;1.15;;;;;;;5.1;86.2334;92908.81;;;;
2020/03/06 02:25:18;;;;;;;1.2;1.15;;;;;;;5.1;86.2334;92908.81;;;;
2020/03/06 02:26:19;;;;;;;1.2;1.15;;;;;;;5.1;86.2334;92908.81;;;;
2020/03/06 02:27:19;;;;;;;1.2;1.15;;;;;;;5.1;86.2334;92908.81;;;;
2020/03/06 02:28:20;;;;;;;1.2;1.15;;;;;;;5.1;86.2334;92908.81;;;;
2020/03/06 02:29:20;;;;;;;1.2;1.15;;;;;;;5.1;86.2334;92908.81;;;;
2020/03/06 02:30:21;;;;;;;1.2;1.15;;;;;;;5.1;86.2334;92908.81;;;;
2020/03/06 02:31:21;;;;;;;1.2;1.15;;;;;;;5.1;86.2334;92908.81;;;;
2020/03/06 02:32:24;;;;;;;1;1;;;;;;;5.34;86.36621;92926.06;;;;
2020/03/06 02:33:24;;;;;;;1;1;;;;;;;5.34;86.36621;92926.06;;;;
2020/03/06 02:34:25;;;;;;;1;1;;;;;;;5.34;86.36621;92926.06;;;;
2020/03/06 02:35:25;;;;;;;1;1;;;;;;;5.34;86.36621;92926.06;;;;
2020/03/06 02:36:26;;;;;;;1;1;;;;;;;5.34;86.36621;92926.06;;;;
2020/03/06 02:37:28;;;;;;;1;1;;;;;;;5.34;86.36621;92926.06;;;;
2020/03/06 02:38:28;;;;;;;1;1;;;;;;;5.34;86.36621;92926.06;;;;
2020/03/06 02:39:29;;;;;;;1;1;;;;;;;5.34;86.36621;92926.06;;;;
2020/03/06 02:40:29;;;;;;;1;1;;;;;;;5.34;86.36621;92926.06;;;;
2020/03/06 02:41:30;;;;;;;1;1;;;;;;;5.34;86.36621;92926.06;;;;
2020/03/06 02:42:30;;;;;;;1;1;;;;;;;5.34;86.36621;92926.06;;;;
2020/03/06 02:43:32;;;;;;;1.2;1.1;;;;;;;5.52;86.29883;92934.41;;;;
2020/03/06 02:44:32;;;;;;;1.2;1.1;;;;;;;5.52;86.29883;92934.41;;;;
2020/03/06 02:45:33;;;;;;;1.2;1.1;;;;;;;5.52;86.29883;92934.41;;;;
2020/03/06 02:46:35;;;;;;;1.2;1.1;;;;;;;5.52;86.29883;92934.41;;;;
2020/03/06 02:47:35;;;;;;;1.2;1.1;;;;;;;5.52;86.29883;92934.41;;;;
2020/03/06 02:48:37;;;;;;;1.2;1.1;;;;;;;5.52;86.29883;92934.41;;;;
2020/03/06 02:49:37;;;;;;;1.2;1.1;;;;;;;5.52;86.29883;92934.41;;;;
2020/03/06 02:50:38;;;;;;;1.2;1.1;;;;;;;5.52;86.29883;92934.41;;;;
2020/03/06 02:51:38;;;;;;;1.2;1.1;;;;;;;5.52;86.29883;92934.41;;;;
2020/03/06 02:52:39;;;;;;;1.2;1.1;;;;;;;5.52;86.29883;92934.41;;;;
2020/03/06 02:53:39;;;;;;;1.1;1;;;;;;;5.7;86.27148;92920.14;;;;
2020/03/06 02:54:40;;;;;;;1.1;1;;;;;;;5.7;86.27148;92920.14;;;;
2020/03/06 02:55:41;;;;;;;1.1;1;;;;;;;5.7;86.27148;92920.14;;;;
2020/03/06 02:56:41;;;;;;;1.1;1;;;;;;;5.7;86.27148;92920.14;;;;
2020/03/06 02:57:42;;;;;;;1.1;1;;;;;;;5.7;86.27148;92920.14;;;;
2020/03/06 02:58:42;;;;;;;1.1;1;;;;;;;5.7;86.27148;92920.14;;;;
2020/03/06 02:59:43;;;;;;;1.1;1;;;;;;;5.7;86.27148;92920.14;;;;
2020/03/06 03:00:43;;;;;;;1.1;1;;;;;;;5.7;86.27148;92920.14;;;;
2020/03/06 03:01:44;;;;;;;1.1;1;;;;;;;5.7;86.27148;92920.14;;;;
2020/03/06 03:02:44;;;;;;;1.1;1;;;;;;;5.7;86.27148;92920.14;;;;
2020/03/06 03:03:45;;;;;;;1.1;1;;;;;;;5.7;86.27148;92920.14;;;;
2020/03/06 03:04:48;;;;;;;0.8;0.8;;;;;;;5.88;86.49512;92925.19;;;;
2020/03/06 03:05:48;;;;;;;0.8;0.8;;;;;;;5.88;86.49512;92925.19;;;;
2020/03/06 03:06:49;;;;;;;0.8;0.8;;;;;;;5.88;86.49512;92925.19;;;;
2020/03/06 03:07:50;;;;;;;0.8;0.8;;;;;;;5.88;86.49512;92925.19;;;;
2020/03/06 03:08:50;;;;;;;0.8;0.8;;;;;;;5.88;86.49512;92925.19;;;;
2020/03/06 03:09:51;;;;;;;0.8;0.8;;;;;;;5.88;86.49512;92925.19;;;;
2020/03/06 03:10:52;;;;;;;0.8;0.8;;;;;;;5.88;86.49512;92925.19;;;;
2020/03/06 03:11:53;;;;;;;0.8;0.8;;;;;;;5.88;86.49512;92925.19;;;;
2020/03/06 03:12:54;;;;;;;0.8;0.8;;;;;;;5.88;86.49512;92925.19;;;;
2020/03/06 03:13:55;;;;;;;0.8;0.8;;;;;;;5.88;86.49512;92925.19;;;;
2020/03/06 03:14:55;;;;;;;0.9;0.9;;;;;;;6.05;86.2334;92920.78;;;;
2020/03/06 03:15:56;;;;;;;0.9;0.9;;;;;;;6.05;86.2334;92920.78;;;;
2020/03/06 03:16:58;;;;;;;0.9;0.9;;;;;;;6.05;86.2334;92920.78;;;;
2020/03/06 03:17:59;;;;;;;0.9;0.9;;;;;;;6.05;86.2334;92920.78;;;;
2020/03/06 03:19:00;;;;;;;0.9;0.9;;;;;;;6.05;86.2334;92920.78;;;;
2020/03/06 03:20:01;;;;;;;0.9;0.9;;;;;;;6.05;86.2334;92920.78;;;;
2020/03/06 03:21:01;;;;;;;0.9;0.9;;;;;;;6.05;86.2334;92920.78;;;;
2020/03/06 03:22:02;;;;;;;0.9;0.9;;;;;;;6.05;86.2334;92920.78;;;;
2020/03/06 03:23:03;;;;;;;0.9;0.9;;;;;;;6.05;86.2334;92920.78;;;;
2020/03/06 03:24:03;;;;;;;0.9;0.9;;;;;;;6.05;86.2334;92920.78;;;;
2020/03/06 03:25:04;;;;;;;0.9;0.9;;;;;;;6.05;86.2334;92920.78;;;;
2020/03/06 03:26:05;;;;;;;0.75;0.75;;;;;;;6.1;85.86426;92927.88;;;;
2020/03/06 03:27:06;;;;;;;0.75;0.75;;;;;;;6.1;85.86426;92927.88;;;;
2020/03/06 03:28:06;;;;;;;0.75;0.75;;;;;;;6.1;85.86426;92927.88;;;;
2020/03/06 03:29:08;;;;;;;0.75;0.75;;;;;;;6.1;85.86426;92927.88;;;;
2020/03/06 03:30:08;;;;;;;0.75;0.75;;;;;;;6.1;85.86426;92927.88;;;;
2020/03/06 03:31:09;;;;;;;0.75;0.75;;;;;;;6.1;85.86426;92927.88;;;;
2020/03/06 03:32:10;;;;;;;0.75;0.75;;;;;;;6.1;85.86426;92927.88;;;;
2020/03/06 03:33:10;;;;;;;0.75;0.75;;;;;;;6.1;85.86426;92927.88;;;;
2020/03/06 03:34:10;;;;;;;0.75;0.75;;;;;;;6.1;85.86426;92927.88;;;;
2020/03/06 03:35:11;;;;;;;0.75;0.75;;;;;;;6.1;85.86426;92927.88;;;;
2020/03/06 03:36:11;;;;;;;0.7;0.7;;;;;;;6.31;85.86328;92931.41;;;;
2020/03/06 03:37:12;;;;;;;0.7;0.7;;;;;;;6.31;85.86328;92931.41;;;;
2020/03/06 03:38:12;;;;;;;0.7;0.7;;;;;;;6.31;85.86328;92931.41;;;;
2020/03/06 03:39:13;;;;;;;0.7;0.7;;;;;;;6.31;85.86328;92931.41;;;;
2020/03/06 03:40:14;;;;;;;0.7;0.7;;;;;;;6.31;85.86328;92931.41;;;;
2020/03/06 03:41:14;;;;;;;0.7;0.7;;;;;;;6.31;85.86328;92931.41;;;;
2020/03/06 03:42:15;;;;;;;0.7;0.7;;;;;;;6.31;85.86328;92931.41;;;;
2020/03/06 03:43:16;;;;;;;0.7;0.7;;;;;;;6.31;85.86328;92931.41;;;;
2020/03/06 03:44:16;;;;;;;0.7;0.7;;;;;;;6.31;85.86328;92931.41;;;;
2020/03/06 03:45:17;;;;;;;0.7;0.7;;;;;;;6.31;85.86328;92931.41;;;;
2020/03/06 03:46:18;;;;;;;0.7;0.7;;;;;;;6.31;85.86328;92931.41;;;;
2020/03/06 03:47:18;;;;;;;0.7;0.7;;;;;;;6.44;85.03223;92973.36;;;;
2020/03/06 03:48:21;;;;;;;0.7;0.7;;;;;;;6.44;85.03223;92973.36;;;;
2020/03/06 03:49:22;;;;;;;0.7;0.7;;;;;;;6.44;85.03223;92973.36;;;;
2020/03/06 03:50:22;;;;;;;0.7;0.7;;;;;;;6.44;85.03223;92973.36;;;;
2020/03/06 03:51:23;;;;;;;0.7;0.7;;;;;;;6.44;85.03223;92973.36;;;;
2020/03/06 03:52:23;;;;;;;0.7;0.7;;;;;;;6.44;85.03223;92973.36;;;;
2020/03/06 03:53:25;;;;;;;0.7;0.7;;;;;;;6.44;85.03223;92973.36;;;;
2020/03/06 03:54:25;;;;;;;0.7;0.7;;;;;;;6.44;85.03223;92973.36;;;;
2020/03/06 03:55:26;;;;;;;0.7;0.7;;;;;;;6.44;85.03223;92973.36;;;;
2020/03/06 03:56:26;;;;;;;0.7;0.7;;;;;;;6.44;85.03223;92973.36;;;;
2020/03/06 03:57:27;;;;;;;1.2;0.7;;;;;;;6.56;84.39063;92977.91;;;;
2020/03/06 03:58:27;;;;;;;1.2;0.7;;;;;;;6.56;84.39063;92977.91;;;;
2020/03/06 03:59:28;;;;;;;1.2;0.7;;;;;;;6.56;84.39063;92977.91;;;;
2020/03/06 04:00:28;;;;;;;1.2;0.7;;;;;;;6.56;84.39063;92977.91;;;;
2020/03/06 04:01:31;;;;;;;1.2;0.7;;;;;;;6.56;84.39063;92977.91;;;;
2020/03/06 04:02:32;;;;;;;1.2;0.7;;;;;;;6.56;84.39063;92977.91;;;;
2020/03/06 04:03:33;;;;;;;1.2;0.7;;;;;;;6.56;84.39063;92977.91;;;;
2020/03/06 04:04:34;;;;;;;1.2;0.7;;;;;;;6.56;84.39063;92977.91;;;;
2020/03/06 04:05:35;;;;;;;1.2;0.7;;;;;;;6.56;84.39063;92977.91;;;;
2020/03/06 04:06:36;;;;;;;1.2;0.7;;;;;;;6.56;84.39063;92977.91;;;;
2020/03/06 04:07:36;;;;;;;1.2;0.7;;;;;;;6.56;84.39063;92977.91;;;;
2020/03/06 04:08:37;;;;;;;0.8;0.8;;;;;;;6.53;83.85645;92965.06;;;;
2020/03/06 04:09:38;;;;;;;0.8;0.8;;;;;;;6.53;83.85645;92965.06;;;;
2020/03/06 04:10:38;;;;;;;0.8;0.8;;;;;;;6.53;83.85645;92965.06;;;;
2020/03/06 04:11:39;;;;;;;0.8;0.8;;;;;;;6.53;83.85645;92965.06;;;;
2020/03/06 04:12:40;;;;;;;0.8;0.8;;;;;;;6.53;83.85645;92965.06;;;;
2020/03/06 04:13:40;;;;;;;0.8;0.8;;;;;;;6.53;83.85645;92965.06;;;;
2020/03/06 04:14:41;;;;;;;0.8;0.8;;;;;;;6.53;83.85645;92965.06;;;;
2020/03/06 04:15:41;;;;;;;0.8;0.8;;;;;;;6.53;83.85645;92965.06;;;;
2020/03/06 04:16:42;;;;;;;0.8;0.8;;;;;;;6.53;83.85645;92965.06;;;;
2020/03/06 04:17:44;;;;;;;0.8;0.8;;;;;;;6.53;83.85645;92965.06;;;;
2020/03/06 04:18:44;;;;;;;2.15;0.8;;;;;;;6.48;83.66797;92968.92;;;;
2020/03/06 04:19:45;;;;;;;2.15;0.8;;;;;;;6.48;83.66797;92968.92;;;;
2020/03/06 04:20:45;;;;;;;2.15;0.8;;;;;;;6.48;83.66797;92968.92;;;;
2020/03/06 04:21:46;;;;;;;2.15;0.8;;;;;;;6.48;83.66797;92968.92;;;;
2020/03/06 04:22:47;;;;;;;2.15;0.8;;;;;;;6.48;83.66797;92968.92;;;;
2020/03/06 04:23:47;;;;;;;2.15;0.8;;;;;;;6.48;83.66797;92968.92;;;;
2020/03/06 04:24:49;;;;;;;2.15;0.8;;;;;;;6.48;83.66797;92968.92;;;;
2020/03/06 04:25:50;;;;;;;2.15;0.8;;;;;;;6.48;83.66797;92968.92;;;;
2020/03/06 04:26:52;;;;;;;2.15;0.8;;;;;;;6.48;83.66797;92968.92;;;;
2020/03/06 04:27:56;;;;;;;2.15;0.8;;;;;;;6.48;83.66797;92968.92;;;;
2020/03/06 04:28:56;;;;;;;0.8;0.8;;;;;;;6.44;83.25684;92968.41;;;;
2020/03/06 04:29:57;;;;;;;0.8;0.8;;;;;;;6.44;83.25684;92968.41;;;;
2020/03/06 04:30:58;;;;;;;0.8;0.8;;;;;;;6.44;83.25684;92968.41;;;;
2020/03/06 04:31:58;;;;;;;0.8;0.8;;;;;;;6.44;83.25684;92968.41;;;;
2020/03/06 04:32:59;;;;;;;0.8;0.8;;;;;;;6.44;83.25684;92968.41;;;;
2020/03/06 04:33:59;;;;;;;0.8;0.8;;;;;;;6.44;83.25684;92968.41;;;;
2020/03/06 04:35:00;;;;;;;0.8;0.8;;;;;;;6.44;83.25684;92968.41;;;;
2020/03/06 04:36:00;;;;;;;0.8;0.8;;;;;;;6.44;83.25684;92968.41;;;;
2020/03/06 04:37:01;;;;;;;0.8;0.8;;;;;;;6.44;83.25684;92968.41;;;;
2020/03/06 04:38:01;;;;;;;0.8;0.8;;;;;;;6.44;83.25684;92968.41;;;;
2020/03/06 04:39:02;;;;;;;0.8;0.8;;;;;;;6.44;83.25684;92968.41;;;;
2020/03/06 04:40:05;;;;;;;0.7;0.7;;;;;;;6.47;82.55371;92967.46;;;;
2020/03/06 04:41:05;;;;;;;0.7;0.7;;;;;;;6.47;82.55371;92967.46;;;;
2020/03/06 04:42:11;;;;;;;0.7;0.7;;;;;;;6.47;82.55371;92967.46;;;;
2020/03/06 04:43:11;;;;;;;0.7;0.7;;;;;;;6.47;82.55371;92967.46;;;;
2020/03/06 04:44:12;;;;;;;0.7;0.7;;;;;;;6.47;82.55371;92967.46;;;;
2020/03/06 04:45:12;;;;;;;0.7;0.7;;;;;;;6.47;82.55371;92967.46;;;;
2020/03/06 04:46:13;;;;;;;0.7;0.7;;;;;;;6.47;82.55371;92967.46;;;;
2020/03/06 04:47:14;;;;;;;0.7;0.7;;;;;;;6.47;82.55371;92967.46;;;;
2020/03/06 04:48:15;;;;;;;0.7;0.7;;;;;;;6.47;82.55371;92967.46;;;;
2020/03/06 04:49:15;;;;;;;0.7;0.7;;;;;;;6.47;82.55371;92967.46;;;;
2020/03/06 04:50:17;;;;;;;0.6;0.6;;;;;;;6.41;81.88965;92982.72;;;;
2020/03/06 04:51:18;;;;;;;0.6;0.6;;;;;;;6.41;81.88965;92982.72;;;;
2020/03/06 04:52:18;;;;;;;0.6;0.6;;;;;;;6.41;81.88965;92982.72;;;;
2020/03/06 04:53:19;;;;;;;0.6;0.6;;;;;;;6.41;81.88965;92982.72;;;;
2020/03/06 04:54:20;;;;;;;0.6;0.6;;;;;;;6.41;81.88965;92982.72;;;;
2020/03/06 04:55:20;;;;;;;0.6;0.6;;;;;;;6.41;81.88965;92982.72;;;;
2020/03/06 04:56:21;;;;;;;0.6;0.6;;;;;;;6.41;81.88965;92982.72;;;;
2020/03/06 04:57:22;;;;;;;0.6;0.6;;;;;;;6.41;81.88965;92982.72;;;;
2020/03/06 04:58:22;;;;;;;0.6;0.6;;;;;;;6.41;81.88965;92982.72;;;;
2020/03/06 04:59:23;;;;;;;0.6;0.6;;;;;;;6.41;81.88965;92982.72;;;;
2020/03/06 05:00:23;;;;;;;0.6;0.6;;;;;;;6.41;81.88965;92982.72;;;;
2020/03/06 05:01:24;;;;;;;0.8;0.8;;;;;;;6.53;80.91699;92969.08;;;;
2020/03/06 05:02:24;;;;;;;0.8;0.8;;;;;;;6.53;80.91699;92969.08;;;;
2020/03/06 05:03:25;;;;;;;0.8;0.8;;;;;;;6.53;80.91699;92969.08;;;;
2020/03/06 05:04:25;;;;;;;0.8;0.8;;;;;;;6.53;80.91699;92969.08;;;;
2020/03/06 05:05:26;;;;;;;0.8;0.8;;;;;;;6.53;80.91699;92969.08;;;;
2020/03/06 05:06:26;;;;;;;0.8;0.8;;;;;;;6.53;80.91699;92969.08;;;;
2020/03/06 05:07:27;;;;;;;0.8;0.8;;;;;;;6.53;80.91699;92969.08;;;;
2020/03/06 05:08:28;;;;;;;0.8;0.8;;;;;;;6.53;80.91699;92969.08;;;;
2020/03/06 05:09:28;;;;;;;0.8;0.8;;;;;;;6.53;80.91699;92969.08;;;;
2020/03/06 05:10:29;;;;;;;0.8;0.8;;;;;;;6.53;80.91699;92969.08;;;;
2020/03/06 05:11:29;;;;;;;0.7;0.7;;;;;;;6.58;79.64453;92983.81;;;;
2020/03/06 05:12:30;;;;;;;0.7;0.7;;;;;;;6.58;79.64453;92983.81;;;;
2020/03/06 05:13:31;;;;;;;0.7;0.7;;;;;;;6.58;79.64453;92983.81;;;;
2020/03/06 05:14:31;;;;;;;0.7;0.7;;;;;;;6.58;79.64453;92983.81;;;;
2020/03/06 05:15:33;;;;;;;0.7;0.7;;;;;;;6.58;79.64453;92983.81;;;;
2020/03/06 05:16:37;;;;;;;0.7;0.7;;;;;;;6.58;79.64453;92983.81;;;;
2020/03/06 05:17:37;;;;;;;0.7;0.7;;;;;;;6.58;79.64453;92983.81;;;;
2020/03/06 05:18:38;;;;;;;0.7;0.7;;;;;;;6.58;79.64453;92983.81;;;;
2020/03/06 05:19:40;;;;;;;0.7;0.7;;;;;;;6.58;79.64453;92983.81;;;;
2020/03/06 05:20:40;;;;;;;0.7;0.7;;;;;;;6.58;79.64453;92983.81;;;;
2020/03/06 05:21:41;;;;;;;0.7;0.7;;;;;;;6.58;79.64453;92983.81;;;;
2020/03/06 05:22:41;;;;;;;0.7;0.7;;;;;;;6.62;79.07129;92989.7;;;;
2020/03/06 05:23:42;;;;;;;0.7;0.7;;;;;;;6.62;79.07129;92989.7;;;;
2020/03/06 05:24:44;;;;;;;0.7;0.7;;;;;;;6.62;79.07129;92989.7;;;;
2020/03/06 05:25:45;;;;;;;0.7;0.7;;;;;;;6.62;79.07129;92989.7;;;;
2020/03/06 05:26:45;;;;;;;0.7;0.7;;;;;;;6.62;79.07129;92989.7;;;;
2020/03/06 05:27:46;;;;;;;0.7;0.7;;;;;;;6.62;79.07129;92989.7;;;;
2020/03/06 05:28:46;;;;;;;0.7;0.7;;;;;;;6.62;79.07129;92989.7;;;;
2020/03/06 05:29:47;;;;;;;0.7;0.7;;;;;;;6.62;79.07129;92989.7;;;;
2020/03/06 05:30:48;;;;;;;0.7;0.7;;;;;;;6.62;79.07129;92989.7;;;;
2020/03/06 05:31:48;;;;;;;0.7;0.7;;;;;;;6.62;79.07129;92989.7;;;;
2020/03/06 05:32:49;;;;;;;2.5;0.7;;;;;;;6.46;78.77734;92996.53;;;;
2020/03/06 05:33:50;;;;;;;2.5;0.7;;;;;;;6.46;78.77734;92996.53;;;;
2020/03/06 05:34:50;;;;;;;2.5;0.7;;;;;;;6.46;78.77734;92996.53;;;;
2020/03/06 05:35:50;;;;;;;2.5;0.7;;;;;;;6.46;78.77734;92996.53;;;;
2020/03/06 05:36:51;;;;;;;2.5;0.7;;;;;;;6.46;78.77734;92996.53;;;;
2020/03/06 05:37:51;;;;;;;2.5;0.7;;;;;;;6.46;78.77734;92996.53;;;;
2020/03/06 05:38:52;;;;;;;2.5;0.7;;;;;;;6.46;78.77734;92996.53;;;;
2020/03/06 05:39:52;;;;;;;2.5;0.7;;;;;;;6.46;78.77734;92996.53;;;;
2020/03/06 05:40:53;;;;;;;2.5;0.7;;;;;;;6.46;78.77734;92996.53;;;;
2020/03/06 05:41:53;;;;;;;2.5;0.7;;;;;;;6.46;78.77734;92996.53;;;;
2020/03/06 05:42:54;;;;;;;2.5;0.7;;;;;;;6.46;78.77734;92996.53;;;;
2020/03/06 05:43:54;;;;;;;0.7;0.7;;;;;;;6.51;78.02344;92992.5;;;;
2020/03/06 05:44:55;;;;;;;0.7;0.7;;;;;;;6.51;78.02344;92992.5;;;;
2020/03/06 05:45:55;;;;;;;0.7;0.7;;;;;;;6.51;78.02344;92992.5;;;;
2020/03/06 05:46:56;;;;;;;0.7;0.7;;;;;;;6.51;78.02344;92992.5;;;;
2020/03/06 05:47:56;;;;;;;0.7;0.7;;;;;;;6.51;78.02344;92992.5;;;;
2020/03/06 05:48:56;;;;;;;0.7;0.7;;;;;;;6.51;78.02344;92992.5;;;;
2020/03/06 05:49:57;;;;;;;0.7;0.7;;;;;;;6.51;78.02344;92992.5;;;;
2020/03/06 05:50:57;;;;;;;0.7;0.7;;;;;;;6.51;78.02344;92992.5;;;;
2020/03/06 05:51:58;;;;;;;0.7;0.7;;;;;;;6.51;78.02344;92992.5;;;;
2020/03/06 05:52:58;;;;;;;0.7;0.7;;;;;;;6.51;78.02344;92992.5;;;;
2020/03/06 05:53:59;;;;;;;0.8;0.8;;;;;;;6.5;77.31445;93000.3;;;;
2020/03/06 05:54:59;;;;;;;0.8;0.8;;;;;;;6.5;77.31445;93000.3;;;;
2020/03/06 05:56:00;;;;;;;0.8;0.8;;;;;;;6.5;77.31445;93000.3;;;;
2020/03/06 05:57:00;;;;;;;0.8;0.8;;;;;;;6.5;77.31445;93000.3;;;;
2020/03/06 05:58:00;;;;;;;0.8;0.8;;;;;;;6.5;77.31445;93000.3;;;;
2020/03/06 05:59:01;;;;;;;0.8;0.8;;;;;;;6.5;77.31445;93000.3;;;;
2020/03/06 06:00:02;;;;;;;0.8;0.8;;;;;;;6.5;77.31445;93000.3;;;;
2020/03/06 06:01:03;;;;;;;0.8;0.8;;;;;;;6.5;77.31445;93000.3;;;;